CTSO2: Bird Creek At Catoosa

                                SHEF ID:       CTSO2     Bird Ck at State Highway 266 nea
STATION TYPE:
Regulating: Stage = 26.00, Flow = 20953

STAGE STAGE(2) RIV-FLOW WTR-TEMP DIS-OXY PH CONDUCT BAT-LOAD
ft ft cfs F mg/l su umho/cm volt
Ccp-Rev Ccp-Rev Ccp-Rev Ccp-Rev Ccp-Rev Ccp-Rev Ccp-Rev Ccp-Rev
(America/Chicago)
05/05 00:00 4.68 3.42 315 72.46 9.77 8.47 412 12.14
05/05 01:00 4.68 3.42 315 72.19 9.40 8.43 410 12.06
05/05 02:00 4.65 3.42 306 71.83 9.08 8.39 410 12.24
05/05 03:00 4.63 3.42 299 71.42 8.87 8.34 403 12.17
05/05 04:00 4.63 3.42 299 71.02 8.55 8.28 405 12.17
05/05 05:00 4.60 3.42 290 70.65 8.37 8.22 406 12.11
05/05 06:00 4.59 3.42 287 70.38 8.33 8.21 404 12.10
05/05 07:00 4.58 3.42 284 70.12 8.29 8.20 402 12.19
05/05 08:00 4.60 3.43 290 69.91 8.20 8.15 400 12.11
05/05 09:00 4.58 3.42 284 69.69 8.16 8.15 400 12.45
05/05 10:00 4.61 3.42 293 69.51 8.18 8.11 390 12.50
05/05 11:00 4.62 3.42 296 69.31 8.22 8.15 388 12.53
05/05 12:00 4.63 3.42 299 69.13 8.44 8.13 380 12.54
05/05 13:00 4.63 3.42 299 68.97 8.60 8.18 368 12.65
05/05 14:00 4.63 3.42 299 68.79 8.60 8.18 365 12.84
05/05 15:00 4.61 3.42 293 68.56 8.74 8.21 358 13.06
05/05 16:00 4.60 3.42 290 68.34 8.94 8.24 362 13.03
05/05 17:00 4.63 3.42 299 68.13 8.96 8.27 366 13.05
05/05 18:00 4.61 3.42 293 67.98 8.88 8.23 376 13.10
05/05 19:00 4.62 3.42 296 67.84 8.84 8.24 377 12.90
05/05 20:00 4.64 3.42 303 67.82 8.81 8.14 379 12.50
05/05 21:00 4.63 3.43 299 67.77 8.80 8.14 378 12.29
05/05 22:00 4.62 3.42 296 67.73 8.88 8.15 376 12.19
05/05 23:00 ---- ---- ---- ---- ---- ---- ---- ----
Data processed at Wed 06May2026 04:21 GMT

NOTICE: If you are parsing this page

Please convert to using our Data API. Starting early 2026 we will be migrating to: https://water.usace.army.mil with modern pages rendered in JavaScript. When this migration completes you will no longer be able to scrape this page! CWMSDataAPI (CDA)

Timeseries IDs (TSIDs)

TSIDs used from left to right in the data table
CATB.Stage.Inst.1Hour.0.Ccp-Rev
CATB.Stage-Alt.Inst.1Hour.0.Ccp-Rev
CATB.Flow.Inst.1Hour.0.Ccp-Rev
CATB.Temp-Water.Inst.1Hour.0.Ccp-Rev
CATB.Conc-DO.Inst.1Hour.0.Ccp-Rev
CATB.pH.Inst.1Hour.0.Ccp-Rev
CATB.Cond-Water.Inst.1Hour.0.Ccp-Rev
CATB.Volt-Battery Load.Inst.1Hour.0.Ccp-Rev

                            

All information presented herein is the property of the government of the United States of America and may be revised or deleted at any time without prior notice. Dissemination of this information without the expressed written consent of the Public Affairs Office, Tulsa District U.S. Army Corps of Engineers is strictly prohibited. These data are gathered electronically and, as presented, have NOT undergone any form of quality control. These data are NOT guaranteed to be valid or correct.